createdAt,value
2019-03-02T00:00:27.825Z,8.80
2019-03-02T00:03:34.846Z,8.80
2019-03-02T00:06:39.677Z,8.70
2019-03-02T00:09:44.699Z,8.70
2019-03-02T00:12:50.123Z,8.70
2019-03-02T00:15:55.568Z,8.70
2019-03-02T00:19:02.919Z,8.60
2019-03-02T00:22:07.720Z,8.60
2019-03-02T00:25:13.063Z,8.70
2019-03-02T00:28:18.702Z,8.60
2019-03-02T00:31:23.642Z,8.60
2019-03-02T00:34:28.833Z,8.70
2019-03-02T00:37:35.519Z,8.70
2019-03-02T00:40:40.624Z,8.70
2019-03-02T00:43:45.595Z,8.70
2019-03-02T00:46:50.629Z,8.70
2019-03-02T00:49:57.252Z,8.80
2019-03-02T00:53:02.491Z,8.80
2019-03-02T00:56:08.849Z,8.80
2019-03-02T00:59:14.134Z,8.80
2019-03-02T01:02:19.232Z,8.80
2019-03-02T01:05:24.421Z,8.90
2019-03-02T01:08:31.753Z,9.00
2019-03-02T01:11:36.194Z,9.00
2019-03-02T01:14:41.617Z,9.00
2019-03-02T01:17:46.797Z,9.00
2019-03-02T01:20:51.921Z,9.00
2019-03-02T01:23:59.798Z,9.10
2019-03-02T01:27:03.754Z,9.10
2019-03-02T01:30:12.073Z,9.20
2019-03-02T01:33:17.106Z,9.20
2019-03-02T01:36:22.151Z,9.20
2019-03-02T01:39:29.223Z,9.20
2019-03-02T01:42:34.010Z,9.30
2019-03-02T01:45:39.119Z,9.30
2019-03-02T01:48:44.172Z,9.30
2019-03-02T01:51:49.357Z,9.30
2019-03-02T01:54:55.823Z,9.20
2019-03-02T01:58:01.110Z,9.20
2019-03-02T02:01:06.474Z,9.20
2019-03-02T02:04:11.655Z,9.20
2019-03-02T02:07:18.034Z,9.10
2019-03-02T02:10:24.000Z,9.10
2019-03-02T02:13:29.134Z,9.00
2019-03-02T02:16:34.154Z,8.90
2019-03-02T02:19:39.653Z,8.90
2019-03-02T02:22:44.919Z,8.90
2019-03-02T02:25:49.950Z,8.80
2019-03-02T02:28:54.991Z,8.70
2019-03-02T02:32:00.091Z,8.60
2019-03-02T02:35:05.376Z,8.60
2019-03-02T02:38:11.293Z,8.50
2019-03-02T02:41:21.994Z,8.40
2019-03-02T02:44:24.037Z,8.40
2019-03-02T02:47:29.152Z,8.30
2019-03-02T02:50:34.208Z,8.30
2019-03-02T02:53:40.218Z,8.30
2019-03-02T02:56:46.140Z,8.30
2019-03-02T02:59:51.262Z,8.20
2019-03-02T03:02:56.300Z,8.20
2019-03-02T03:06:01.487Z,8.20
2019-03-02T03:09:17.921Z,8.20
2019-03-02T03:12:24.744Z,8.10
2019-03-02T03:15:36.922Z,8.10
2019-03-02T03:18:47.013Z,8.10
2019-03-02T03:21:49.523Z,8.00
2019-03-02T03:24:54.484Z,8.00
2019-03-02T03:27:59.595Z,8.00
2019-03-02T03:31:04.756Z,8.00
2019-03-02T03:34:09.848Z,8.00
2019-03-02T03:37:15.104Z,7.90
2019-03-02T03:40:25.164Z,7.90
2019-03-02T03:43:27.015Z,7.80
2019-03-02T03:46:32.049Z,7.80
2019-03-02T03:49:37.135Z,7.80
2019-03-02T03:52:43.995Z,7.80
2019-03-02T03:55:49.067Z,7.80
2019-03-02T03:58:54.193Z,7.80
2019-03-02T04:01:59.304Z,7.80
2019-03-02T04:05:08.476Z,7.70
2019-03-02T04:08:11.396Z,7.70
2019-03-02T04:11:16.499Z,7.70
2019-03-02T04:14:23.380Z,7.60
2019-03-02T04:17:28.267Z,7.60
2019-03-02T04:20:36.493Z,7.60
2019-03-02T04:23:41.600Z,7.60
2019-03-02T04:26:46.640Z,7.60
2019-03-02T04:29:55.309Z,7.60
2019-03-02T04:33:01.669Z,7.70
2019-03-02T04:36:09.424Z,7.60
2019-03-02T04:39:13.761Z,7.70
2019-03-02T04:42:18.736Z,7.60
2019-03-02T04:45:23.715Z,7.60
2019-03-02T04:48:28.811Z,7.70
2019-03-02T04:51:35.143Z,7.70
2019-03-02T04:54:40.658Z,7.70
2019-03-02T04:57:45.631Z,7.70
2019-03-02T05:00:50.615Z,7.70
2019-03-02T05:03:57.195Z,7.70
2019-03-02T05:07:02.452Z,7.80
2019-03-02T05:10:08.865Z,7.70
2019-03-02T05:13:13.903Z,7.80
2019-03-02T05:16:18.949Z,7.80
2019-03-02T05:19:29.944Z,7.80
2019-03-02T05:22:36.620Z,7.80
2019-03-02T05:25:41.739Z,7.70
2019-03-02T05:28:47.454Z,7.70
2019-03-02T05:31:52.566Z,7.80
2019-03-02T05:34:57.628Z,7.80
2019-03-02T05:38:05.578Z,7.80
2019-03-02T05:41:10.754Z,7.80
2019-03-02T05:44:15.876Z,7.80
2019-03-02T05:47:21.036Z,7.70
2019-03-02T05:50:26.550Z,7.80
2019-03-02T05:53:32.907Z,7.70
2019-03-02T05:56:37.883Z,7.80
2019-03-02T05:59:42.876Z,7.80
2019-03-02T06:02:47.983Z,7.80
2019-03-02T06:05:53.584Z,7.80
2019-03-02T06:08:58.586Z,7.80
2019-03-02T06:12:04.841Z,7.90
2019-03-02T06:15:10.942Z,7.90
2019-03-02T06:18:15.994Z,7.90
2019-03-02T06:21:20.969Z,8.00
2019-03-02T06:24:26.839Z,8.10
2019-03-02T06:27:32.191Z,8.20
2019-03-02T06:30:40.549Z,8.10
2019-03-02T06:33:45.124Z,8.20
2019-03-02T06:36:50.563Z,8.20
2019-03-02T06:39:56.308Z,8.30
2019-03-02T06:43:02.014Z,8.30
2019-03-02T06:46:07.200Z,8.40
2019-03-02T06:49:12.644Z,8.30
2019-03-02T06:52:19.157Z,8.40
2019-03-02T06:55:24.709Z,8.40
2019-03-02T06:58:30.497Z,8.30
2019-03-02T07:01:35.519Z,8.30
2019-03-02T07:04:43.038Z,8.30
2019-03-02T07:07:48.142Z,8.30
2019-03-02T07:10:54.503Z,8.30
2019-03-02T07:13:59.891Z,8.20
2019-03-02T07:17:04.978Z,8.30
2019-03-02T07:20:15.954Z,8.30
2019-03-02T07:23:21.120Z,8.40
2019-03-02T07:26:26.150Z,8.40
2019-03-02T07:29:32.027Z,8.40
2019-03-02T07:32:37.315Z,8.50
2019-03-02T07:35:42.302Z,8.50
2019-03-02T07:38:47.248Z,8.50
2019-03-02T07:41:54.205Z,8.50
2019-03-02T07:44:59.386Z,8.40
2019-03-02T07:48:04.691Z,8.40
2019-03-02T07:51:09.731Z,8.40
2019-03-02T07:54:15.751Z,8.50
2019-03-02T07:57:20.718Z,8.50
2019-03-02T08:00:25.827Z,8.50
2019-03-02T08:03:30.956Z,8.40
2019-03-02T08:06:36.145Z,8.40
2019-03-02T08:09:41.171Z,8.40
2019-03-02T08:12:46.210Z,8.40
2019-03-02T08:15:51.337Z,8.40
2019-03-02T08:18:56.555Z,8.30
2019-03-02T08:22:01.677Z,8.40
2019-03-02T08:25:07.847Z,8.40
2019-03-02T08:28:13.039Z,8.40
2019-03-02T08:31:18.218Z,8.50
2019-03-02T08:34:23.163Z,8.50
2019-03-02T08:37:29.793Z,8.50
2019-03-02T08:40:34.967Z,8.50
2019-03-02T08:43:40.035Z,8.50
2019-03-02T08:46:45.078Z,8.50
2019-03-02T08:49:50.031Z,8.50
2019-03-02T08:52:55.130Z,8.50
2019-03-02T08:56:00.172Z,8.50
2019-03-02T08:59:05.278Z,8.50
2019-03-02T09:02:10.398Z,8.50
2019-03-02T09:05:15.662Z,8.50
2019-03-02T09:08:20.771Z,8.60
2019-03-02T09:11:25.815Z,8.60
2019-03-02T09:14:30.855Z,8.70
2019-03-02T09:17:35.987Z,8.70
2019-03-02T09:20:40.960Z,8.70
2019-03-02T09:23:46.019Z,8.70
2019-03-02T09:26:51.136Z,8.80
2019-03-02T09:29:59.034Z,8.70
2019-03-02T09:33:02.883Z,8.70
2019-03-02T09:36:07.899Z,8.60
2019-03-02T09:39:14.522Z,8.50
2019-03-02T09:42:19.563Z,8.50
2019-03-02T09:45:24.658Z,8.60
2019-03-02T09:48:29.685Z,8.60
2019-03-02T09:51:34.645Z,8.70
2019-03-02T09:54:39.809Z,8.80
2019-03-02T09:57:47.539Z,9.00
2019-03-02T10:00:51.708Z,9.10
2019-03-02T10:03:58.792Z,9.20
2019-03-02T10:07:04.345Z,9.40
2019-03-02T10:10:11.094Z,9.60
2019-03-02T10:13:16.141Z,9.80
2019-03-02T10:16:21.247Z,9.90
2019-03-02T10:19:28.922Z,10.00
2019-03-02T10:22:35.202Z,10.00
2019-03-02T10:25:39.895Z,10.00
2019-03-02T10:28:44.895Z,10.00
2019-03-02T10:31:49.868Z,9.90
2019-03-02T10:34:54.828Z,9.90
2019-03-02T10:37:59.859Z,10.00
2019-03-02T10:41:04.967Z,9.90
2019-03-02T10:44:10.083Z,9.90
2019-03-02T10:47:15.207Z,9.80
2019-03-02T10:50:23.270Z,9.80
2019-03-02T10:53:28.178Z,9.80
2019-03-02T10:56:33.354Z,9.80
2019-03-02T10:59:38.397Z,9.70
2019-03-02T11:02:43.512Z,9.60
2019-03-02T11:06:04.698Z,9.60
2019-03-02T11:09:30.456Z,9.50
2019-03-02T11:13:05.283Z,9.60
2019-03-02T11:16:21.879Z,9.60
2019-03-02T11:19:47.410Z,9.60
2019-03-02T11:23:15.719Z,9.70
2019-03-02T11:26:43.666Z,9.80
2019-03-02T11:29:57.147Z,9.70
2019-03-02T11:33:15.477Z,9.70
2019-03-02T11:36:34.928Z,9.70
2019-03-02T11:39:55.247Z,9.70
2019-03-02T11:43:36.739Z,9.80
2019-03-02T11:46:53.746Z,9.80
2019-03-02T11:50:23.901Z,10.00
2019-03-02T11:53:53.785Z,10.00
2019-03-02T11:57:17.794Z,10.10
2019-03-02T12:00:57.907Z,10.10
2019-03-02T12:04:23.583Z,10.10
2019-03-02T12:08:02.564Z,10.00
2019-03-02T12:11:22.783Z,10.00
2019-03-02T12:14:35.172Z,10.00
2019-03-02T12:17:50.016Z,10.00
2019-03-02T12:21:23.226Z,10.10
2019-03-02T12:24:45.828Z,10.20
2019-03-02T12:28:09.072Z,10.30
2019-03-02T12:31:23.544Z,10.40
2019-03-02T12:34:46.394Z,10.40
2019-03-02T12:38:11.672Z,10.50
2019-03-02T12:41:34.760Z,10.50
2019-03-02T12:44:57.873Z,10.60
2019-03-02T12:48:29.386Z,10.60
2019-03-02T12:52:02.631Z,10.60
2019-03-02T12:55:35.885Z,10.50
2019-03-02T12:59:02.844Z,10.50
2019-03-02T13:02:35.950Z,10.40
2019-03-02T13:06:03.131Z,10.30
2019-03-02T13:09:29.996Z,10.30
2019-03-02T13:12:46.126Z,10.20
2019-03-02T13:16:10.304Z,10.20
2019-03-02T13:19:31.551Z,10.20
2019-03-02T13:23:13.559Z,10.20
2019-03-02T13:26:28.478Z,10.20
2019-03-02T13:29:53.303Z,10.10
2019-03-02T13:33:19.701Z,10.10
2019-03-02T13:36:46.594Z,10.20
2019-03-02T13:40:19.637Z,10.30
2019-03-02T13:43:35.184Z,10.40
2019-03-02T13:46:57.983Z,10.50
2019-03-02T13:50:31.235Z,10.60
2019-03-02T13:54:04.140Z,10.60
2019-03-02T13:57:19.682Z,10.70
2019-03-02T14:00:44.538Z,10.70
2019-03-02T14:04:07.392Z,10.60
2019-03-02T14:07:42.398Z,10.60
2019-03-02T14:11:07.129Z,10.60
2019-03-02T14:14:34.254Z,10.60
2019-03-02T14:17:58.673Z,10.50
2019-03-02T14:21:21.254Z,10.40
2019-03-02T14:24:37.541Z,10.30
2019-03-02T14:28:01.932Z,10.30
2019-03-02T14:31:20.143Z,10.30
2019-03-02T14:34:43.846Z,10.20
2019-03-02T14:38:05.278Z,10.10
2019-03-02T14:41:42.091Z,10.00
2019-03-02T14:45:01.106Z,10.00
2019-03-02T14:48:28.403Z,10.00
2019-03-02T14:51:48.179Z,10.00
2019-03-02T14:55:07.568Z,10.10
2019-03-02T14:58:38.703Z,10.10
2019-03-02T15:02:01.508Z,10.10
2019-03-02T15:05:11.959Z,10.20
2019-03-02T15:08:37.433Z,10.20
2019-03-02T15:11:58.544Z,10.30
2019-03-02T15:15:16.501Z,10.30
2019-03-02T15:18:43.383Z,10.30
2019-03-02T15:22:03.837Z,10.40
2019-03-02T15:25:29.724Z,10.40
2019-03-02T15:28:45.368Z,10.50
2019-03-02T15:31:56.566Z,10.50
2019-03-02T15:35:18.020Z,10.50
2019-03-02T15:38:48.046Z,10.50
2019-03-02T15:42:18.006Z,10.60
2019-03-02T15:45:43.901Z,10.60
2019-03-02T15:48:54.499Z,10.60
2019-03-02T15:52:17.459Z,10.60
2019-03-02T15:55:41.301Z,10.60
2019-03-02T15:58:59.586Z,10.70
2019-03-02T16:02:13.927Z,10.70
2019-03-02T16:05:37.967Z,10.70
2019-03-02T16:09:17.046Z,10.70
2019-03-02T16:12:35.757Z,10.70
2019-03-02T16:16:00.036Z,10.70
2019-03-02T16:19:29.098Z,10.70
2019-03-02T16:22:53.111Z,10.70
2019-03-02T16:26:13.105Z,10.70
2019-03-02T16:29:42.667Z,10.80
2019-03-02T16:33:12.946Z,10.80
2019-03-02T16:36:36.246Z,10.80
2019-03-02T16:40:03.131Z,10.70
2019-03-02T16:43:15.408Z,10.70
2019-03-02T16:46:27.243Z,10.70
2019-03-02T16:49:50.159Z,10.70
2019-03-02T16:53:29.715Z,10.70
2019-03-02T16:56:57.584Z,10.60
2019-03-02T17:00:21.430Z,10.60
2019-03-02T17:03:39.068Z,10.50
2019-03-02T17:07:00.332Z,10.50
2019-03-02T17:10:29.048Z,10.50
2019-03-02T17:13:40.033Z,10.50
2019-03-02T17:17:02.817Z,10.50
2019-03-02T17:20:24.552Z,10.50
2019-03-02T17:23:47.586Z,10.50
2019-03-02T17:27:11.698Z,10.50
2019-03-02T17:30:36.657Z,10.50
2019-03-02T17:34:03.563Z,10.50
2019-03-02T17:37:35.880Z,10.50
2019-03-02T17:41:07.758Z,10.50
2019-03-02T17:44:23.569Z,10.50
2019-03-02T17:47:48.097Z,10.50
2019-03-02T17:51:18.459Z,10.50
2019-03-02T17:54:46.536Z,10.50
2019-03-02T17:58:09.863Z,10.50
2019-03-02T18:01:33.879Z,10.40
2019-03-02T18:04:47.827Z,10.40
2019-03-02T18:08:08.795Z,10.40
2019-03-02T18:11:32.648Z,10.40
2019-03-02T18:14:56.670Z,10.40
2019-03-02T18:18:00.972Z,10.50
2019-03-02T18:21:06.052Z,10.40
2019-03-02T18:24:11.056Z,10.40
2019-03-02T18:27:16.107Z,10.40
2019-03-02T18:30:21.569Z,10.40
2019-03-02T18:33:40.007Z,10.20
2019-03-02T18:36:49.965Z,10.20
2019-03-02T18:39:53.778Z,10.00
2019-03-02T18:42:58.907Z,9.90
2019-03-02T18:46:04.056Z,9.80
2019-03-02T18:49:18.624Z,9.70
2019-03-02T18:52:39.066Z,9.60
2019-03-02T18:55:44.268Z,9.50
2019-03-02T18:58:49.383Z,9.40
2019-03-02T19:01:54.356Z,9.40
2019-03-02T19:04:59.407Z,9.30
2019-03-02T19:08:05.059Z,9.20
2019-03-02T19:11:10.629Z,9.10
2019-03-02T19:14:16.905Z,9.10
2019-03-02T19:17:24.508Z,9.00
2019-03-02T19:20:29.511Z,9.00
2019-03-02T19:23:34.663Z,9.00
2019-03-02T19:26:39.841Z,9.10
2019-03-02T19:29:44.802Z,9.10
2019-03-02T19:32:50.081Z,9.20
2019-03-02T19:35:55.184Z,9.30
2019-03-02T19:39:00.568Z,9.30
2019-03-02T19:42:05.813Z,9.30
2019-03-02T19:45:11.133Z,9.30
2019-03-02T19:48:16.329Z,9.30
2019-03-02T19:51:21.350Z,9.40
2019-03-02T19:54:26.520Z,9.40
2019-03-02T19:57:31.706Z,9.50
2019-03-02T20:00:36.969Z,9.60
2019-03-02T20:03:42.052Z,9.60
2019-03-02T20:06:47.322Z,9.60
2019-03-02T20:09:52.473Z,9.70
2019-03-02T20:12:57.691Z,9.70
2019-03-02T20:16:03.099Z,9.80
2019-03-02T20:19:08.356Z,9.80
2019-03-02T20:22:13.398Z,9.90
2019-03-02T20:25:18.537Z,9.90
2019-03-02T20:28:23.581Z,10.00
2019-03-02T20:31:28.750Z,10.00
2019-03-02T20:34:33.815Z,10.00
2019-03-02T20:37:39.003Z,10.00
2019-03-02T20:40:44.121Z,10.00
2019-03-02T20:43:49.171Z,10.10
2019-03-02T20:46:54.444Z,10.10
2019-03-02T20:49:59.556Z,10.10
2019-03-02T20:53:04.674Z,10.00
2019-03-02T20:56:09.815Z,10.00
2019-03-02T20:59:14.790Z,10.00
2019-03-02T21:02:19.801Z,10.00
2019-03-02T21:05:25.111Z,10.10
2019-03-02T21:08:30.101Z,10.10
2019-03-02T21:11:35.157Z,10.10
2019-03-02T21:14:40.369Z,10.10
2019-03-02T21:17:45.432Z,10.10
2019-03-02T21:20:50.843Z,10.10
2019-03-02T21:23:58.065Z,10.10
2019-03-02T21:27:03.198Z,10.10
2019-03-02T21:30:10.764Z,10.10
2019-03-02T21:33:16.035Z,10.10
2019-03-02T21:36:23.745Z,10.10
2019-03-02T21:39:28.871Z,10.00
2019-03-02T21:42:33.996Z,10.00
2019-03-02T21:45:39.159Z,10.00
2019-03-02T21:48:44.348Z,10.00
2019-03-02T21:51:49.722Z,10.00
2019-03-02T21:54:54.865Z,10.00
2019-03-02T21:57:59.937Z,10.00
2019-03-02T22:01:05.068Z,10.10
2019-03-02T22:04:10.042Z,10.10
2019-03-02T22:07:15.030Z,10.10
2019-03-02T22:10:26.081Z,10.20
2019-03-02T22:13:31.130Z,10.20
2019-03-02T22:16:36.182Z,10.20
2019-03-02T22:19:41.541Z,10.30
2019-03-02T22:22:46.584Z,10.30
2019-03-02T22:25:51.631Z,10.30
2019-03-02T22:28:56.747Z,10.30
2019-03-02T22:32:02.079Z,10.30
2019-03-02T22:35:07.347Z,10.30
2019-03-02T22:38:12.524Z,10.20
2019-03-02T22:41:17.743Z,10.20
2019-03-02T22:44:22.871Z,10.20
2019-03-02T22:47:27.853Z,10.20
2019-03-02T22:50:32.983Z,10.20
2019-03-02T22:53:38.005Z,10.20
2019-03-02T22:56:43.050Z,10.20
2019-03-02T23:00:37.650Z,10.20
2019-03-02T23:03:41.325Z,10.20
2019-03-02T23:06:46.502Z,10.20
2019-03-02T23:09:51.472Z,10.20
2019-03-02T23:12:56.655Z,10.20
2019-03-02T23:16:01.870Z,10.20
2019-03-02T23:19:06.959Z,10.30
2019-03-02T23:22:12.080Z,10.20
2019-03-02T23:25:17.126Z,10.20
2019-03-02T23:28:22.169Z,10.20
2019-03-02T23:31:27.276Z,10.20
2019-03-02T23:34:37.126Z,10.20
2019-03-02T23:37:39.107Z,10.10
2019-03-02T23:40:44.224Z,10.10
2019-03-02T23:43:49.173Z,10.10
2019-03-02T23:46:54.289Z,10.10
2019-03-02T23:49:59.351Z,10.10
2019-03-02T23:53:04.535Z,10.10
2019-03-02T23:56:09.633Z,10.10
2019-03-02T23:59:14.596Z,10.00
